sensor_id;sensor_type;location;lat;lon;timestamp;pressure;altitude;pressure_sealevel;temperature;humidity
22653;BME280;11493;43.344;26.226;2023-01-30T00:01:48;99667.56;;;1.73;100.00
22653;BME280;11493;43.344;26.226;2023-01-30T00:04:15;99675.69;;;1.73;100.00
22653;BME280;11493;43.344;26.226;2023-01-30T00:06:43;99673.06;;;1.78;100.00
22653;BME280;11493;43.344;26.226;2023-01-30T00:09:13;99675.84;;;1.83;100.00
22653;BME280;11493;43.344;26.226;2023-01-30T00:11:40;99683.25;;;1.71;100.00
22653;BME280;11493;43.344;26.226;2023-01-30T00:14:08;99681.06;;;1.68;100.00
22653;BME280;11493;43.344;26.226;2023-01-30T00:16:35;99677.44;;;1.62;100.00
22653;BME280;11493;43.344;26.226;2023-01-30T00:19:02;99695.25;;;1.75;100.00
22653;BME280;11493;43.344;26.226;2023-01-30T00:21:29;99692.63;;;1.80;100.00
22653;BME280;11493;43.344;26.226;2023-01-30T00:23:56;99680.22;;;1.84;100.00
22653;BME280;11493;43.344;26.226;2023-01-30T00:26:23;99681.63;;;1.70;100.00
22653;BME280;11493;43.344;26.226;2023-01-30T00:28:50;99689.50;;;1.88;100.00
22653;BME280;11493;43.344;26.226;2023-01-30T00:31:17;99680.78;;;1.86;100.00
22653;BME280;11493;43.344;26.226;2023-01-30T00:33:43;99685.72;;;1.89;100.00
22653;BME280;11493;43.344;26.226;2023-01-30T00:36:12;99681.28;;;1.83;100.00
22653;BME280;11493;43.344;26.226;2023-01-30T00:38:38;99683.56;;;1.91;100.00
22653;BME280;11493;43.344;26.226;2023-01-30T00:41:06;99682.00;;;1.95;100.00
22653;BME280;11493;43.344;26.226;2023-01-30T00:43:34;99631.50;;;1.56;100.00
22653;BME280;11493;43.344;26.226;2023-01-30T00:46:28;99682.91;;;1.84;100.00
22653;BME280;11493;43.344;26.226;2023-01-30T00:49:16;99674.78;;;1.84;100.00
22653;BME280;11493;43.344;26.226;2023-01-30T00:51:43;99686.72;;;1.83;100.00
22653;BME280;11493;43.344;26.226;2023-01-30T00:54:11;99677.34;;;1.74;100.00
22653;BME280;11493;43.344;26.226;2023-01-30T00:56:38;99679.81;;;1.76;100.00
22653;BME280;11493;43.344;26.226;2023-01-30T00:59:05;99669.31;;;1.62;100.00
22653;BME280;11493;43.344;26.226;2023-01-30T01:01:32;99663.38;;;1.65;100.00
22653;BME280;11493;43.344;26.226;2023-01-30T01:04:00;99659.94;;;1.70;100.00
22653;BME280;11493;43.344;26.226;2023-01-30T01:06:27;99655.91;;;1.56;100.00
22653;BME280;11493;43.344;26.226;2023-01-30T01:08:55;99639.56;;;1.51;100.00
22653;BME280;11493;43.344;26.226;2023-01-30T01:11:22;99656.81;;;1.61;100.00
22653;BME280;11493;43.344;26.226;2023-01-30T01:13:58;99654.66;;;1.63;100.00
22653;BME280;11493;43.344;26.226;2023-01-30T01:16:26;99657.13;;;1.65;100.00
22653;BME280;11493;43.344;26.226;2023-01-30T01:18:56;99652.38;;;1.55;100.00
22653;BME280;11493;43.344;26.226;2023-01-30T01:21:23;99627.84;;;1.45;100.00
22653;BME280;11493;43.344;26.226;2023-01-30T01:23:53;99636.09;;;1.55;100.00
22653;BME280;11493;43.344;26.226;2023-01-30T01:26:21;99639.72;;;1.61;100.00
22653;BME280;11493;43.344;26.226;2023-01-30T01:28:48;99639.53;;;1.68;100.00
22653;BME280;11493;43.344;26.226;2023-01-30T01:31:16;99637.25;;;1.59;100.00
22653;BME280;11493;43.344;26.226;2023-01-30T01:33:43;99644.16;;;1.67;100.00
22653;BME280;11493;43.344;26.226;2023-01-30T01:36:10;99630.84;;;1.65;100.00
22653;BME280;11493;43.344;26.226;2023-01-30T01:38:45;99643.16;;;1.73;100.00
22653;BME280;11493;43.344;26.226;2023-01-30T01:41:13;99641.09;;;1.80;100.00
22653;BME280;11493;43.344;26.226;2023-01-30T01:46:54;99638.13;;;1.82;100.00
22653;BME280;11493;43.344;26.226;2023-01-30T01:49:33;99627.44;;;1.75;100.00
22653;BME280;11493;43.344;26.226;2023-01-30T01:52:08;99624.16;;;1.73;100.00
22653;BME280;11493;43.344;26.226;2023-01-30T01:54:51;99622.91;;;1.81;100.00
22653;BME280;11493;43.344;26.226;2023-01-30T01:57:24;99623.91;;;1.75;100.00
22653;BME280;11493;43.344;26.226;2023-01-30T01:59:58;99612.16;;;1.69;100.00
22653;BME280;11493;43.344;26.226;2023-01-30T02:02:26;99597.47;;;1.65;100.00
22653;BME280;11493;43.344;26.226;2023-01-30T02:04:56;99623.72;;;1.81;100.00
22653;BME280;11493;43.344;26.226;2023-01-30T02:07:37;99621.59;;;1.83;100.00
22653;BME280;11493;43.344;26.226;2023-01-30T02:10:07;99611.56;;;1.84;100.00
22653;BME280;11493;43.344;26.226;2023-01-30T02:12:37;99609.16;;;1.87;100.00
22653;BME280;11493;43.344;26.226;2023-01-30T02:15:05;99582.09;;;1.71;100.00
22653;BME280;11493;43.344;26.226;2023-01-30T02:17:32;99597.59;;;1.75;100.00
22653;BME280;11493;43.344;26.226;2023-01-30T02:34:49;99609.09;;;1.82;100.00
22653;BME280;11493;43.344;26.226;2023-01-30T02:48:35;99604.59;;;1.71;100.00
22653;BME280;11493;43.344;26.226;2023-01-30T02:51:10;99605.66;;;1.70;100.00
22653;BME280;11493;43.344;26.226;2023-01-30T02:53:39;99605.66;;;1.70;100.00
22653;BME280;11493;43.344;26.226;2023-01-30T02:56:06;99611.34;;;1.69;100.00
22653;BME280;11493;43.344;26.226;2023-01-30T02:58:40;99610.34;;;1.75;100.00
22653;BME280;11493;43.344;26.226;2023-01-30T03:01:19;99617.91;;;1.73;100.00
22653;BME280;11493;43.344;26.226;2023-01-30T03:03:59;99626.06;;;1.73;100.00
22653;BME280;11493;43.344;26.226;2023-01-30T03:15:16;99611.13;;;1.53;100.00
22653;BME280;11493;43.344;26.226;2023-01-30T03:17:48;99590.94;;;1.44;100.00
22653;BME280;11493;43.344;26.226;2023-01-30T03:20:18;99602.50;;;1.56;100.00
22653;BME280;11493;43.344;26.226;2023-01-30T03:22:46;99602.75;;;1.55;100.00
22653;BME280;11493;43.344;26.226;2023-01-30T03:25:18;99597.31;;;1.55;100.00
22653;BME280;11493;43.344;26.226;2023-01-30T03:27:49;99598.47;;;1.59;100.00
22653;BME280;11493;43.344;26.226;2023-01-30T03:30:17;99599.22;;;1.54;100.00
22653;BME280;11493;43.344;26.226;2023-01-30T03:32:45;99591.72;;;1.61;100.00
22653;BME280;11493;43.344;26.226;2023-01-30T03:35:13;99594.44;;;1.61;100.00
22653;BME280;11493;43.344;26.226;2023-01-30T03:37:44;99597.88;;;1.57;100.00
22653;BME280;11493;43.344;26.226;2023-01-30T03:40:13;99586.69;;;1.48;100.00
22653;BME280;11493;43.344;26.226;2023-01-30T03:42:42;99582.50;;;1.41;100.00
22653;BME280;11493;43.344;26.226;2023-01-30T03:45:10;99584.25;;;1.52;100.00
22653;BME280;11493;43.344;26.226;2023-01-30T03:47:37;99564.59;;;1.40;100.00
22653;BME280;11493;43.344;26.226;2023-01-30T03:50:05;99583.75;;;1.55;100.00
22653;BME280;11493;43.344;26.226;2023-01-30T03:52:36;99577.25;;;1.56;100.00
22653;BME280;11493;43.344;26.226;2023-01-30T03:55:07;99582.69;;;1.56;100.00
22653;BME280;11493;43.344;26.226;2023-01-30T03:57:34;99559.91;;;1.35;100.00
22653;BME280;11493;43.344;26.226;2023-01-30T04:00:02;99582.88;;;1.49;100.00
22653;BME280;11493;43.344;26.226;2023-01-30T04:02:41;99576.13;;;1.52;100.00
22653;BME280;11493;43.344;26.226;2023-01-30T04:05:11;99573.16;;;1.53;100.00
22653;BME280;11493;43.344;26.226;2023-01-30T04:07:42;99571.91;;;1.61;100.00
22653;BME280;11493;43.344;26.226;2023-01-30T04:10:09;99559.25;;;1.45;100.00
22653;BME280;11493;43.344;26.226;2023-01-30T04:12:37;99561.25;;;1.54;100.00
22653;BME280;11493;43.344;26.226;2023-01-30T04:15:05;99564.16;;;1.48;100.00
22653;BME280;11493;43.344;26.226;2023-01-30T04:17:50;99555.97;;;1.43;100.00
22653;BME280;11493;43.344;26.226;2023-01-30T04:20:37;99565.22;;;1.47;100.00
22653;BME280;11493;43.344;26.226;2023-01-30T04:23:04;99543.41;;;1.37;100.00
22653;BME280;11493;43.344;26.226;2023-01-30T04:25:31;99544.53;;;1.41;100.00
22653;BME280;11493;43.344;26.226;2023-01-30T04:27:59;99563.34;;;1.47;100.00
22653;BME280;11493;43.344;26.226;2023-01-30T04:30:31;99563.06;;;1.49;100.00
22653;BME280;11493;43.344;26.226;2023-01-30T04:33:16;99552.50;;;1.47;100.00
22653;BME280;11493;43.344;26.226;2023-01-30T04:35:57;99564.44;;;1.51;100.00
22653;BME280;11493;43.344;26.226;2023-01-30T04:38:25;99564.91;;;1.43;100.00
22653;BME280;11493;43.344;26.226;2023-01-30T04:40:54;99565.28;;;1.52;100.00
22653;BME280;11493;43.344;26.226;2023-01-30T04:43:23;99559.28;;;1.50;100.00
22653;BME280;11493;43.344;26.226;2023-01-30T04:45:53;99565.34;;;1.57;100.00
22653;BME280;11493;43.344;26.226;2023-01-30T04:48:22;99558.28;;;1.56;100.00
22653;BME280;11493;43.344;26.226;2023-01-30T04:50:51;99556.56;;;1.50;100.00
22653;BME280;11493;43.344;26.226;2023-01-30T04:53:19;99572.78;;;1.45;100.00
22653;BME280;11493;43.344;26.226;2023-01-30T04:55:47;99560.56;;;1.42;100.00
22653;BME280;11493;43.344;26.226;2023-01-30T04:58:15;99569.63;;;1.53;100.00
22653;BME280;11493;43.344;26.226;2023-01-30T05:00:41;99556.56;;;1.50;100.00
22653;BME280;11493;43.344;26.226;2023-01-30T05:03:08;99571.78;;;1.51;100.00
22653;BME280;11493;43.344;26.226;2023-01-30T05:05:35;99556.53;;;1.45;100.00
22653;BME280;11493;43.344;26.226;2023-01-30T05:08:02;99553.00;;;1.44;100.00
22653;BME280;11493;43.344;26.226;2023-01-30T05:10:29;99562.81;;;1.50;100.00
22653;BME280;11493;43.344;26.226;2023-01-30T05:13:01;99558.75;;;1.48;100.00
22653;BME280;11493;43.344;26.226;2023-01-30T05:15:29;99569.63;;;1.53;100.00
22653;BME280;11493;43.344;26.226;2023-01-30T05:17:56;99561.81;;;1.56;100.00
22653;BME280;11493;43.344;26.226;2023-01-30T05:20:23;99568.22;;;1.50;100.00
22653;BME280;11493;43.344;26.226;2023-01-30T05:22:50;99541.19;;;1.34;100.00
22653;BME280;11493;43.344;26.226;2023-01-30T05:25:17;99572.59;;;1.51;100.00
22653;BME280;11493;43.344;26.226;2023-01-30T05:27:44;99573.16;;;1.53;100.00
22653;BME280;11493;43.344;26.226;2023-01-30T05:30:12;99554.81;;;1.39;100.00
22653;BME280;11493;43.344;26.226;2023-01-30T05:32:39;99573.91;;;1.49;100.00
22653;BME280;11493;43.344;26.226;2023-01-30T05:35:06;99567.13;;;1.46;100.00
22653;BME280;11493;43.344;26.226;2023-01-30T05:37:33;99574.47;;;1.51;100.00
22653;BME280;11493;43.344;26.226;2023-01-30T05:40:00;99570.69;;;1.52;100.00
22653;BME280;11493;43.344;26.226;2023-01-30T05:42:27;99578.91;;;1.57;100.00
22653;BME280;11493;43.344;26.226;2023-01-30T05:44:53;99582.13;;;1.54;100.00
22653;BME280;11493;43.344;26.226;2023-01-30T05:47:20;99584.31;;;1.57;100.00
22653;BME280;11493;43.344;26.226;2023-01-30T05:49:47;99585.41;;;1.56;100.00
22653;BME280;11493;43.344;26.226;2023-01-30T05:52:14;99590.00;;;1.55;100.00
22653;BME280;11493;43.344;26.226;2023-01-30T05:54:41;99582.44;;;1.57;100.00
22653;BME280;11493;43.344;26.226;2023-01-30T05:57:08;99576.31;;;1.45;100.00
22653;BME280;11493;43.344;26.226;2023-01-30T05:59:35;99578.25;;;1.50;100.00
22653;BME280;11493;43.344;26.226;2023-01-30T06:02:02;99586.41;;;1.50;100.00
22653;BME280;11493;43.344;26.226;2023-01-30T06:04:29;99575.31;;;1.51;100.00
22653;BME280;11493;43.344;26.226;2023-01-30T06:06:56;99575.56;;;1.50;100.00
22653;BME280;11493;43.344;26.226;2023-01-30T06:09:23;99587.63;;;1.59;100.00
22653;BME280;11493;43.344;26.226;2023-01-30T06:11:50;99575.06;;;1.53;100.00
22653;BME280;11493;43.344;26.226;2023-01-30T06:14:18;99571.72;;;1.46;100.00
22653;BME280;11493;43.344;26.226;2023-01-30T06:16:45;99590.56;;;1.57;100.00
22653;BME280;11493;43.344;26.226;2023-01-30T06:19:12;99581.53;;;1.52;100.00
22653;BME280;11493;43.344;26.226;2023-01-30T06:21:39;99584.25;;;1.52;100.00
22653;BME280;11493;43.344;26.226;2023-01-30T06:24:06;99580.44;;;1.48;100.00
22653;BME280;11493;43.344;26.226;2023-01-30T06:26:33;99570.41;;;1.48;100.00
22653;BME280;11493;43.344;26.226;2023-01-30T06:29:00;99582.19;;;1.59;100.00
22653;BME280;11493;43.344;26.226;2023-01-30T06:31:27;99578.16;;;1.61;100.00
22653;BME280;11493;43.344;26.226;2023-01-30T06:33:54;99568.88;;;1.57;100.00
22653;BME280;11493;43.344;26.226;2023-01-30T06:36:20;99579.13;;;1.72;100.00
22653;BME280;11493;43.344;26.226;2023-01-30T06:38:47;99567.78;;;1.75;100.00
22653;BME280;11493;43.344;26.226;2023-01-30T06:41:14;99547.06;;;1.69;100.00
22653;BME280;11493;43.344;26.226;2023-01-30T06:43:41;99566.69;;;1.76;100.00
22653;BME280;11493;43.344;26.226;2023-01-30T06:46:08;99566.88;;;1.70;100.00
22653;BME280;11493;43.344;26.226;2023-01-30T06:48:35;99559.63;;;1.75;100.00
22653;BME280;11493;43.344;26.226;2023-01-30T06:51:02;99558.13;;;1.84;100.00
22653;BME280;11493;43.344;26.226;2023-01-30T06:53:29;99559.44;;;1.82;100.00
22653;BME280;11493;43.344;26.226;2023-01-30T06:56:00;99572.19;;;1.81;100.00
22653;BME280;11493;43.344;26.226;2023-01-30T06:58:27;99572.13;;;1.76;100.00
22653;BME280;11493;43.344;26.226;2023-01-30T07:00:54;99562.16;;;1.82;100.00
22653;BME280;11493;43.344;26.226;2023-01-30T07:03:22;99569.47;;;1.81;100.00
22653;BME280;11493;43.344;26.226;2023-01-30T07:05:49;99563.41;;;1.74;100.00
22653;BME280;11493;43.344;26.226;2023-01-30T07:08:16;99563.78;;;1.83;100.00
22653;BME280;11493;43.344;26.226;2023-01-30T07:10:43;99566.91;;;1.91;100.00
22653;BME280;11493;43.344;26.226;2023-01-30T07:13:10;99566.66;;;1.93;100.00
22653;BME280;11493;43.344;26.226;2023-01-30T07:15:37;99545.25;;;1.75;100.00
22653;BME280;11493;43.344;26.226;2023-01-30T07:18:04;99554.00;;;1.82;100.00
22653;BME280;11493;43.344;26.226;2023-01-30T07:20:32;99566.31;;;1.89;100.00
22653;BME280;11493;43.344;26.226;2023-01-30T07:22:59;99566.66;;;1.93;100.00
22653;BME280;11493;43.344;26.226;2023-01-30T07:25:27;99567.09;;;2.07;100.00
22653;BME280;11493;43.344;26.226;2023-01-30T07:27:57;99561.78;;;2.17;100.00
22653;BME280;11493;43.344;26.226;2023-01-30T07:30:25;99554.59;;;2.06;100.00
22653;BME280;11493;43.344;26.226;2023-01-30T07:32:54;99572.00;;;2.10;100.00
22653;BME280;11493;43.344;26.226;2023-01-30T07:35:24;99571.44;;;2.08;100.00
22653;BME280;11493;43.344;26.226;2023-01-30T07:37:51;99567.59;;;2.04;100.00
22653;BME280;11493;43.344;26.226;2023-01-30T07:40:19;99561.28;;;1.98;98.88
22653;BME280;11493;43.344;26.226;2023-01-30T07:45:41;99552.50;;;1.91;99.95
22653;BME280;11493;43.344;26.226;2023-01-30T07:48:10;99555.97;;;1.86;100.00
22653;BME280;11493;43.344;26.226;2023-01-30T07:50:37;99558.00;;;1.96;100.00
22653;BME280;11493;43.344;26.226;2023-01-30T07:53:06;99549.53;;;1.92;100.00
22653;BME280;11493;43.344;26.226;2023-01-30T07:55:34;99558.94;;;2.07;100.00
22653;BME280;11493;43.344;26.226;2023-01-30T07:58:01;99552.44;;;2.08;100.00
22653;BME280;11493;43.344;26.226;2023-01-30T08:00:28;99554.97;;;2.14;100.00
22653;BME280;11493;43.344;26.226;2023-01-30T08:02:55;99548.53;;;2.25;100.00
22653;BME280;11493;43.344;26.226;2023-01-30T08:05:22;99540.97;;;2.27;99.78
22653;BME280;11493;43.344;26.226;2023-01-30T08:07:49;99557.31;;;2.33;99.59
22653;BME280;11493;43.344;26.226;2023-01-30T08:10:16;99544.03;;;2.36;100.00
22653;BME280;11493;43.344;26.226;2023-01-30T08:12:43;99535.38;;;2.39;99.65
22653;BME280;11493;43.344;26.226;2023-01-30T08:15:10;99519.97;;;2.18;99.85
22653;BME280;11493;43.344;26.226;2023-01-30T08:17:37;99525.81;;;2.31;100.00
22653;BME280;11493;43.344;26.226;2023-01-30T08:20:05;99541.38;;;2.41;99.39
22653;BME280;11493;43.344;26.226;2023-01-30T08:22:32;99542.56;;;2.50;99.36
22653;BME280;11493;43.344;26.226;2023-01-30T08:24:59;99539.13;;;2.60;99.80
22653;BME280;11493;43.344;26.226;2023-01-30T08:27:26;99544.56;;;2.60;99.68
22653;BME280;11493;43.344;26.226;2023-01-30T08:29:53;99540.56;;;2.68;99.31
22653;BME280;11493;43.344;26.226;2023-01-30T08:32:19;99544.66;;;2.70;99.33
22653;BME280;11493;43.344;26.226;2023-01-30T08:34:46;99531.84;;;2.66;98.95
22653;BME280;11493;43.344;26.226;2023-01-30T08:37:13;99518.22;;;2.60;98.55
22653;BME280;11493;43.344;26.226;2023-01-30T08:39:40;99541.16;;;2.75;98.05
22653;BME280;11493;43.344;26.226;2023-01-30T08:42:07;99548.53;;;2.79;98.52
22653;BME280;11493;43.344;26.226;2023-01-30T08:44:34;99532.09;;;2.64;98.79
22653;BME280;11493;43.344;26.226;2023-01-30T08:47:01;99526.25;;;2.77;99.42
22653;BME280;11493;43.344;26.226;2023-01-30T08:49:27;99505.28;;;2.73;99.39
22653;BME280;11493;43.344;26.226;2023-01-30T08:51:54;99528.00;;;2.93;99.30
22653;BME280;11493;43.344;26.226;2023-01-30T08:54:21;99514.03;;;2.80;98.52
22653;BME280;11493;43.344;26.226;2023-01-30T08:56:48;99512.25;;;2.95;97.30
22653;BME280;11493;43.344;26.226;2023-01-30T08:59:15;99522.28;;;2.90;97.58
22653;BME280;11493;43.344;26.226;2023-01-30T09:01:42;99515.16;;;2.84;96.41
22653;BME280;11493;43.344;26.226;2023-01-30T09:04:09;99507.91;;;2.62;98.24
22653;BME280;11493;43.344;26.226;2023-01-30T09:06:36;99510.53;;;2.84;97.08
22653;BME280;11493;43.344;26.226;2023-01-30T09:09:03;99510.72;;;2.73;97.08
22653;BME280;11493;43.344;26.226;2023-01-30T09:11:30;99510.16;;;2.71;97.16
22653;BME280;11493;43.344;26.226;2023-01-30T09:13:56;99497.13;;;2.73;96.70
22653;BME280;11493;43.344;26.226;2023-01-30T09:16:23;99507.44;;;2.71;96.13
22653;BME280;11493;43.344;26.226;2023-01-30T09:18:50;99507.56;;;2.54;96.65
22653;BME280;11493;43.344;26.226;2023-01-30T09:21:19;99496.91;;;2.47;96.71
22653;BME280;11493;43.344;26.226;2023-01-30T09:23:47;99482.56;;;2.25;97.63
22653;BME280;11493;43.344;26.226;2023-01-30T09:26:14;99496.63;;;2.17;99.32
22653;BME280;11493;43.344;26.226;2023-01-30T09:28:41;99481.41;;;2.16;97.45
22653;BME280;11493;43.344;26.226;2023-01-30T09:31:08;99479.63;;;2.00;97.77
22653;BME280;11493;43.344;26.226;2023-01-30T09:33:35;99467.38;;;1.97;98.77
22653;BME280;11493;43.344;26.226;2023-01-30T09:36:02;99486.13;;;1.98;98.24
22653;BME280;11493;43.344;26.226;2023-01-30T09:38:29;99468.09;;;1.87;98.87
22653;BME280;11493;43.344;26.226;2023-01-30T09:43:49;99461.38;;;1.95;100.00
22653;BME280;11493;43.344;26.226;2023-01-30T09:46:40;99475.13;;;2.10;99.13
22653;BME280;11493;43.344;26.226;2023-01-30T09:52:01;99449.31;;;2.08;98.30
22653;BME280;11493;43.344;26.226;2023-01-30T09:54:36;99459.13;;;2.14;99.08
22653;BME280;11493;43.344;26.226;2023-01-30T09:57:14;99453.97;;;2.12;98.96
22653;BME280;11493;43.344;26.226;2023-01-30T09:59:52;99448.53;;;2.12;98.33
22653;BME280;11493;43.344;26.226;2023-01-30T10:05:07;99443.47;;;2.21;99.74
22653;BME280;11493;43.344;26.226;2023-01-30T10:08:14;99439.31;;;2.45;98.97
22653;BME280;11493;43.344;26.226;2023-01-30T10:10:47;99432.50;;;2.43;97.45
22653;BME280;11493;43.344;26.226;2023-01-30T10:18:46;99423.53;;;2.42;98.79
22653;BME280;11493;43.344;26.226;2023-01-30T10:26:54;99391.66;;;2.64;96.96
22653;BME280;11493;43.344;26.226;2023-01-30T10:29:27;99390.94;;;2.42;97.97
22653;BME280;11493;43.344;26.226;2023-01-30T10:32:04;99401.97;;;2.62;97.47
22653;BME280;11493;43.344;26.226;2023-01-30T10:34:41;99389.78;;;2.70;97.74
22653;BME280;11493;43.344;26.226;2023-01-30T10:37:14;99392.34;;;2.87;96.80
22653;BME280;11493;43.344;26.226;2023-01-30T10:40:11;99393.09;;;2.77;95.65
22653;BME280;11493;43.344;26.226;2023-01-30T10:43:08;99387.72;;;2.45;96.40
22653;BME280;11493;43.344;26.226;2023-01-30T10:45:45;99371.00;;;2.26;98.34
22653;BME280;11493;43.344;26.226;2023-01-30T11:00:12;99329.88;;;2.45;97.38
22653;BME280;11493;43.344;26.226;2023-01-30T11:03:19;99345.16;;;2.56;97.93
22653;BME280;11493;43.344;26.226;2023-01-30T11:05:52;99336.75;;;2.57;97.00
22653;BME280;11493;43.344;26.226;2023-01-30T11:08:25;99322.50;;;2.40;97.51
22653;BME280;11493;43.344;26.226;2023-01-30T11:10:54;99330.72;;;2.50;98.65
22653;BME280;11493;43.344;26.226;2023-01-30T11:13:31;99335.06;;;2.51;99.01
22653;BME280;11493;43.344;26.226;2023-01-30T11:16:05;99322.50;;;2.40;98.47
22653;BME280;11493;43.344;26.226;2023-01-30T11:18:46;99276.50;;;2.18;99.89
22653;BME280;11493;43.344;26.226;2023-01-30T11:21:34;99301.94;;;2.49;98.19
22653;BME280;11493;43.344;26.226;2023-01-30T11:24:16;99303.81;;;2.49;98.70
22653;BME280;11493;43.344;26.226;2023-01-30T11:26:45;99291.44;;;2.68;98.31
22653;BME280;11493;43.344;26.226;2023-01-30T11:29:23;99294.75;;;2.75;98.76
22653;BME280;11493;43.344;26.226;2023-01-30T11:31:51;99284.91;;;2.64;98.18
22653;BME280;11493;43.344;26.226;2023-01-30T11:34:20;99286.31;;;2.77;96.46
22653;BME280;11493;43.344;26.226;2023-01-30T11:36:48;99266.44;;;2.66;96.86
22653;BME280;11493;43.344;26.226;2023-01-30T11:44:32;99271.09;;;2.76;97.89
22653;BME280;11493;43.344;26.226;2023-01-30T11:47:08;99272.16;;;2.70;98.32
22653;BME280;11493;43.344;26.226;2023-01-30T11:49:40;99249.00;;;2.57;98.55
22653;BME280;11493;43.344;26.226;2023-01-30T11:52:27;99255.81;;;2.59;98.55
22653;BME280;11493;43.344;26.226;2023-01-30T11:55:02;99239.56;;;2.70;96.95
22653;BME280;11493;43.344;26.226;2023-01-30T11:57:49;99251.88;;;2.92;97.49
22653;BME280;11493;43.344;26.226;2023-01-30T12:00:22;99242.94;;;3.12;96.30
22653;BME280;11493;43.344;26.226;2023-01-30T12:02:52;99246.72;;;2.91;96.15
22653;BME280;11493;43.344;26.226;2023-01-30T12:05:30;99240.22;;;2.97;97.05
22653;BME280;11493;43.344;26.226;2023-01-30T12:10:57;99238.06;;;3.19;95.82
22653;BME280;11493;43.344;26.226;2023-01-30T12:13:40;99222.84;;;3.28;95.56
22653;BME280;11493;43.344;26.226;2023-01-30T12:16:25;99228.59;;;3.47;93.60
22653;BME280;11493;43.344;26.226;2023-01-30T12:19:06;99220.16;;;3.39;94.28
22653;BME280;11493;43.344;26.226;2023-01-30T12:21:58;99218.53;;;3.33;93.85
22653;BME280;11493;43.344;26.226;2023-01-30T12:24:38;99215.47;;;2.93;96.13
22653;BME280;11493;43.344;26.226;2023-01-30T12:27:21;99212.50;;;3.10;95.93
22653;BME280;11493;43.344;26.226;2023-01-30T12:29:59;99208.97;;;3.15;96.59
22653;BME280;11493;43.344;26.226;2023-01-30T12:32:31;99212.25;;;3.27;95.76
22653;BME280;11493;43.344;26.226;2023-01-30T12:35:01;99206.81;;;3.27;95.51
22653;BME280;11493;43.344;26.226;2023-01-30T12:40:45;99204.88;;;3.07;95.57
22653;BME280;11493;43.344;26.226;2023-01-30T12:43:36;99219.00;;;3.04;95.68
22653;BME280;11493;43.344;26.226;2023-01-30T12:55:06;99212.94;;;2.72;98.12
22653;BME280;11493;43.344;26.226;2023-01-30T13:10:57;99189.00;;;2.63;99.16
22653;BME280;11493;43.344;26.226;2023-01-30T13:13:47;99182.16;;;2.51;99.70
22653;BME280;11493;43.344;26.226;2023-01-30T13:19:29;99176.78;;;2.61;98.99
22653;BME280;11493;43.344;26.226;2023-01-30T13:28:19;99173.25;;;2.66;99.68
22653;BME280;11493;43.344;26.226;2023-01-30T13:30:48;99171.63;;;2.64;99.35
22653;BME280;11493;43.344;26.226;2023-01-30T13:33:27;99165.66;;;2.68;99.83
22653;BME280;11493;43.344;26.226;2023-01-30T13:36:08;99138.50;;;2.68;98.78
22653;BME280;11493;43.344;26.226;2023-01-30T13:39:15;99159.69;;;2.71;98.01
22653;BME280;11493;43.344;26.226;2023-01-30T13:41:38;99157.50;;;2.62;98.46
22653;BME280;11493;43.344;26.226;2023-01-30T13:44:27;99152.63;;;2.64;99.16
22653;BME280;11493;43.344;26.226;2023-01-30T13:46:58;99140.94;;;2.69;99.52
22653;BME280;11493;43.344;26.226;2023-01-30T13:55:40;99148.03;;;2.80;98.26
22653;BME280;11493;43.344;26.226;2023-01-30T14:00:54;99143.38;;;2.66;99.28
22653;BME280;11493;43.344;26.226;2023-01-30T14:03:32;99139.03;;;2.59;99.29
22653;BME280;11493;43.344;26.226;2023-01-30T14:06:07;99132.25;;;2.67;99.84
22653;BME280;11493;43.344;26.226;2023-01-30T14:16:52;99130.28;;;2.47;100.00
22653;BME280;11493;43.344;26.226;2023-01-30T14:21:57;99123.50;;;2.45;100.00
22653;BME280;11493;43.344;26.226;2023-01-30T14:24:25;99120.50;;;2.41;100.00
22653;BME280;11493;43.344;26.226;2023-01-30T14:45:46;99086.25;;;2.30;97.81
22653;BME280;11493;43.344;26.226;2023-01-30T14:51:35;99112.88;;;2.38;98.16
22653;BME280;11493;43.344;26.226;2023-01-30T14:57:04;99101.47;;;2.36;98.93
22653;BME280;11493;43.344;26.226;2023-01-30T15:04:45;99091.69;;;2.35;98.63
22653;BME280;11493;43.344;26.226;2023-01-30T15:13:01;99104.44;;;2.29;99.68
22653;BME280;11493;43.344;26.226;2023-01-30T15:15:50;99112.03;;;2.27;99.20
22653;BME280;11493;43.344;26.226;2023-01-30T15:32:21;99104.13;;;2.16;100.00
22653;BME280;11493;43.344;26.226;2023-01-30T15:34:54;99109.56;;;2.26;100.00
22653;BME280;11493;43.344;26.226;2023-01-30T15:38:16;99103.06;;;2.27;100.00
22653;BME280;11493;43.344;26.226;2023-01-30T15:40:23;99096.25;;;2.24;100.00
22653;BME280;11493;43.344;26.226;2023-01-30T15:43:05;99095.44;;;2.24;100.00
22653;BME280;11493;43.344;26.226;2023-01-30T15:45:45;99089.50;;;2.22;100.00
22653;BME280;11493;43.344;26.226;2023-01-30T15:51:03;99094.91;;;2.27;100.00
22653;BME280;11493;43.344;26.226;2023-01-30T15:53:34;99095.44;;;2.24;100.00
22653;BME280;11493;43.344;26.226;2023-01-30T15:56:06;99047.91;;;2.01;100.00
22653;BME280;11493;43.344;26.226;2023-01-30T15:58:40;99080.25;;;2.28;100.00
22653;BME280;11493;43.344;26.226;2023-01-30T16:01:08;99083.78;;;2.23;100.00
22653;BME280;11493;43.344;26.226;2023-01-30T16:03:39;99087.06;;;2.20;100.00
22653;BME280;11493;43.344;26.226;2023-01-30T16:06:06;99088.13;;;2.19;100.00
22653;BME280;11493;43.344;26.226;2023-01-30T16:09:01;99072.41;;;2.21;100.00
22653;BME280;11493;43.344;26.226;2023-01-30T16:11:39;99066.66;;;2.13;99.72
22653;BME280;11493;43.344;26.226;2023-01-30T16:14:14;99073.47;;;2.15;99.47
22653;BME280;11493;43.344;26.226;2023-01-30T16:17:01;99078.34;;;2.13;99.29
22653;BME280;11493;43.344;26.226;2023-01-30T16:19:29;99081.88;;;2.19;98.58
22653;BME280;11493;43.344;26.226;2023-01-30T16:22:00;99066.69;;;2.23;98.65